sensor_id;sensor_type;location;lat;lon;timestamp;temperature;humidity
4699;DHT22;33708;49.466;11.176;2024-03-06T00:02:08;8.80;99.90
4699;DHT22;33708;49.466;11.176;2024-03-06T00:04:34;9.50;99.90
4699;DHT22;33708;49.466;11.176;2024-03-06T00:07:00;8.70;99.90
4699;DHT22;33708;49.466;11.176;2024-03-06T00:09:26;10.00;99.90
4699;DHT22;33708;49.466;11.176;2024-03-06T00:11:55;8.90;99.90
4699;DHT22;33708;49.466;11.176;2024-03-06T00:14:21;8.80;99.90
4699;DHT22;33708;49.466;11.176;2024-03-06T00:16:57;8.80;99.90
4699;DHT22;33708;49.466;11.176;2024-03-06T00:23:07;8.50;99.90
4699;DHT22;33708;49.466;11.176;2024-03-06T00:25:33;11.10;99.90
4699;DHT22;33708;49.466;11.176;2024-03-06T00:28:00;9.30;99.90
4699;DHT22;33708;49.466;11.176;2024-03-06T00:30:25;8.70;99.90
4699;DHT22;33708;49.466;11.176;2024-03-06T00:32:52;8.80;99.90
4699;DHT22;33708;49.466;11.176;2024-03-06T00:35:18;8.60;99.90
4699;DHT22;33708;49.466;11.176;2024-03-06T00:37:45;8.60;99.90
4699;DHT22;33708;49.466;11.176;2024-03-06T00:40:11;10.10;99.90
4699;DHT22;33708;49.466;11.176;2024-03-06T00:42:38;8.60;99.90
4699;DHT22;33708;49.466;11.176;2024-03-06T00:45:06;9.20;99.90
4699;DHT22;33708;49.466;11.176;2024-03-06T00:47:32;8.40;99.90
4699;DHT22;33708;49.466;11.176;2024-03-06T00:50:00;8.30;99.90
4699;DHT22;33708;49.466;11.176;2024-03-06T00:52:25;9.70;99.90
4699;DHT22;33708;49.466;11.176;2024-03-06T00:54:51;8.20;99.90
4699;DHT22;33708;49.466;11.176;2024-03-06T00:57:16;8.60;99.90
4699;DHT22;33708;49.466;11.176;2024-03-06T00:59:42;9.30;99.90
4699;DHT22;33708;49.466;11.176;2024-03-06T01:02:07;8.70;99.90
4699;DHT22;33708;49.466;11.176;2024-03-06T01:04:33;9.80;99.90
4699;DHT22;33708;49.466;11.176;2024-03-06T01:06:59;8.40;99.90
4699;DHT22;33708;49.466;11.176;2024-03-06T01:09:24;9.40;99.90
4699;DHT22;33708;49.466;11.176;2024-03-06T01:11:50;8.30;99.90
4699;DHT22;33708;49.466;11.176;2024-03-06T01:14:16;10.30;99.90
4699;DHT22;33708;49.466;11.176;2024-03-06T01:16:42;8.40;99.90
4699;DHT22;33708;49.466;11.176;2024-03-06T01:19:08;11.00;99.90
4699;DHT22;33708;49.466;11.176;2024-03-06T01:21:33;9.90;99.90
4699;DHT22;33708;49.466;11.176;2024-03-06T01:24:00;9.80;99.90
4699;DHT22;33708;49.466;11.176;2024-03-06T01:26:26;8.50;99.90
4699;DHT22;33708;49.466;11.176;2024-03-06T01:28:51;8.40;99.90
4699;DHT22;33708;49.466;11.176;2024-03-06T01:31:17;8.20;99.90
4699;DHT22;33708;49.466;11.176;2024-03-06T01:33:43;8.50;99.90
4699;DHT22;33708;49.466;11.176;2024-03-06T01:36:08;9.30;99.90
4699;DHT22;33708;49.466;11.176;2024-03-06T01:38:34;7.70;99.90
4699;DHT22;33708;49.466;11.176;2024-03-06T01:41:00;8.80;99.90
4699;DHT22;33708;49.466;11.176;2024-03-06T01:43:26;9.20;99.90
4699;DHT22;33708;49.466;11.176;2024-03-06T01:45:52;9.90;99.90
4699;DHT22;33708;49.466;11.176;2024-03-06T01:48:23;7.70;99.90
4699;DHT22;33708;49.466;11.176;2024-03-06T01:50:53;8.30;99.90
4699;DHT22;33708;49.466;11.176;2024-03-06T01:53:21;8.50;99.90
4699;DHT22;33708;49.466;11.176;2024-03-06T01:55:48;7.50;99.90
4699;DHT22;33708;49.466;11.176;2024-03-06T01:58:14;8.00;99.90
4699;DHT22;33708;49.466;11.176;2024-03-06T02:00:40;8.40;99.90
4699;DHT22;33708;49.466;11.176;2024-03-06T02:03:06;10.60;99.90
4699;DHT22;33708;49.466;11.176;2024-03-06T02:05:32;8.20;99.90
4699;DHT22;33708;49.466;11.176;2024-03-06T02:07:58;9.20;99.90
4699;DHT22;33708;49.466;11.176;2024-03-06T02:10:25;8.40;99.90
4699;DHT22;33708;49.466;11.176;2024-03-06T02:12:52;9.50;99.90
4699;DHT22;33708;49.466;11.176;2024-03-06T02:15:18;9.50;99.90
4699;DHT22;33708;49.466;11.176;2024-03-06T02:17:44;9.60;99.90
4699;DHT22;33708;49.466;11.176;2024-03-06T02:20:11;9.70;99.90
4699;DHT22;33708;49.466;11.176;2024-03-06T02:22:43;8.40;99.90
4699;DHT22;33708;49.466;11.176;2024-03-06T02:25:10;8.50;99.90
4699;DHT22;33708;49.466;11.176;2024-03-06T02:27:40;8.60;99.90
4699;DHT22;33708;49.466;11.176;2024-03-06T02:30:07;8.50;99.90
4699;DHT22;33708;49.466;11.176;2024-03-06T02:32:33;8.30;99.90
4699;DHT22;33708;49.466;11.176;2024-03-06T02:35:03;8.20;99.90
4699;DHT22;33708;49.466;11.176;2024-03-06T02:37:33;8.00;99.90
4699;DHT22;33708;49.466;11.176;2024-03-06T02:39:59;7.90;99.90
4699;DHT22;33708;49.466;11.176;2024-03-06T02:42:27;7.80;99.90
4699;DHT22;33708;49.466;11.176;2024-03-06T02:44:53;7.80;99.90
4699;DHT22;33708;49.466;11.176;2024-03-06T02:47:19;7.90;99.90
4699;DHT22;33708;49.466;11.176;2024-03-06T02:49:44;7.90;99.90
4699;DHT22;33708;49.466;11.176;2024-03-06T02:52:10;8.00;99.90
4699;DHT22;33708;49.466;11.176;2024-03-06T02:54:36;8.10;99.90
4699;DHT22;33708;49.466;11.176;2024-03-06T02:57:01;8.20;99.90
4699;DHT22;33708;49.466;11.176;2024-03-06T02:59:27;8.20;99.90
4699;DHT22;33708;49.466;11.176;2024-03-06T03:01:52;8.00;99.90
4699;DHT22;33708;49.466;11.176;2024-03-06T03:04:18;7.90;99.90
4699;DHT22;33708;49.466;11.176;2024-03-06T03:06:44;7.70;99.90
4699;DHT22;33708;49.466;11.176;2024-03-06T03:09:09;7.60;99.90
4699;DHT22;33708;49.466;11.176;2024-03-06T03:11:37;7.60;99.90
4699;DHT22;33708;49.466;11.176;2024-03-06T03:14:03;7.50;99.90
4699;DHT22;33708;49.466;11.176;2024-03-06T03:16:29;7.40;99.90
4699;DHT22;33708;49.466;11.176;2024-03-06T03:18:55;7.30;99.90
4699;DHT22;33708;49.466;11.176;2024-03-06T03:21:21;7.20;99.90
4699;DHT22;33708;49.466;11.176;2024-03-06T03:23:47;7.30;99.90
4699;DHT22;33708;49.466;11.176;2024-03-06T03:26:14;7.30;99.90
4699;DHT22;33708;49.466;11.176;2024-03-06T03:28:39;7.40;99.90
4699;DHT22;33708;49.466;11.176;2024-03-06T03:31:08;7.40;99.90
4699;DHT22;33708;49.466;11.176;2024-03-06T03:33:35;7.40;99.90
4699;DHT22;33708;49.466;11.176;2024-03-06T03:36:05;7.40;99.90
4699;DHT22;33708;49.466;11.176;2024-03-06T03:38:32;7.50;99.90
4699;DHT22;33708;49.466;11.176;2024-03-06T03:40:58;7.60;99.90
4699;DHT22;33708;49.466;11.176;2024-03-06T03:43:24;7.70;99.90
4699;DHT22;33708;49.466;11.176;2024-03-06T03:45:49;7.80;99.90
4699;DHT22;33708;49.466;11.176;2024-03-06T03:48:15;7.90;99.90
4699;DHT22;33708;49.466;11.176;2024-03-06T03:50:40;8.10;99.90
4699;DHT22;33708;49.466;11.176;2024-03-06T03:53:06;8.00;99.90
4699;DHT22;33708;49.466;11.176;2024-03-06T03:55:32;8.00;99.90
4699;DHT22;33708;49.466;11.176;2024-03-06T03:57:57;8.10;99.90
4699;DHT22;33708;49.466;11.176;2024-03-06T04:00:23;8.10;99.90
4699;DHT22;33708;49.466;11.176;2024-03-06T04:02:49;8.10;99.90
4699;DHT22;33708;49.466;11.176;2024-03-06T04:05:14;7.90;99.90
4699;DHT22;33708;49.466;11.176;2024-03-06T04:07:40;8.00;99.90
4699;DHT22;33708;49.466;11.176;2024-03-06T04:10:06;8.00;99.90
4699;DHT22;33708;49.466;11.176;2024-03-06T04:12:32;8.10;99.90
4699;DHT22;33708;49.466;11.176;2024-03-06T04:14:58;8.10;99.90
4699;DHT22;33708;49.466;11.176;2024-03-06T04:17:23;8.20;99.90
4699;DHT22;33708;49.466;11.176;2024-03-06T04:19:50;8.20;99.90
4699;DHT22;33708;49.466;11.176;2024-03-06T04:22:19;8.20;99.90
4699;DHT22;33708;49.466;11.176;2024-03-06T04:24:44;8.30;99.90
4699;DHT22;33708;49.466;11.176;2024-03-06T04:27:10;8.40;99.90
4699;DHT22;33708;49.466;11.176;2024-03-06T04:29:36;8.50;99.90
4699;DHT22;33708;49.466;11.176;2024-03-06T04:32:01;8.50;99.90
4699;DHT22;33708;49.466;11.176;2024-03-06T04:34:27;8.40;99.90
4699;DHT22;33708;49.466;11.176;2024-03-06T04:36:53;8.50;99.90
4699;DHT22;33708;49.466;11.176;2024-03-06T04:39:18;8.20;99.90
4699;DHT22;33708;49.466;11.176;2024-03-06T04:41:44;8.00;99.90
4699;DHT22;33708;49.466;11.176;2024-03-06T04:44:09;8.10;99.90
4699;DHT22;33708;49.466;11.176;2024-03-06T04:46:35;8.20;99.90
4699;DHT22;33708;49.466;11.176;2024-03-06T04:49:00;8.20;99.90
4699;DHT22;33708;49.466;11.176;2024-03-06T04:51:26;8.30;99.90
4699;DHT22;33708;49.466;11.176;2024-03-06T04:53:51;8.20;99.90
4699;DHT22;33708;49.466;11.176;2024-03-06T04:56:17;8.30;99.90
4699;DHT22;33708;49.466;11.176;2024-03-06T04:58:44;8.30;99.90
4699;DHT22;33708;49.466;11.176;2024-03-06T05:01:12;8.20;99.90
4699;DHT22;33708;49.466;11.176;2024-03-06T05:03:38;8.30;99.90
4699;DHT22;33708;49.466;11.176;2024-03-06T05:06:05;8.40;99.90
4699;DHT22;33708;49.466;11.176;2024-03-06T05:08:30;8.40;99.90
4699;DHT22;33708;49.466;11.176;2024-03-06T05:10:56;8.30;99.90
4699;DHT22;33708;49.466;11.176;2024-03-06T05:13:22;8.00;99.90
4699;DHT22;33708;49.466;11.176;2024-03-06T05:15:48;7.70;99.90
4699;DHT22;33708;49.466;11.176;2024-03-06T05:18:13;7.60;99.90
4699;DHT22;33708;49.466;11.176;2024-03-06T05:20:39;7.50;99.90
4699;DHT22;33708;49.466;11.176;2024-03-06T05:23:04;7.50;99.90
4699;DHT22;33708;49.466;11.176;2024-03-06T05:25:30;7.50;99.90
4699;DHT22;33708;49.466;11.176;2024-03-06T05:27:56;7.40;99.90
4699;DHT22;33708;49.466;11.176;2024-03-06T05:30:21;7.50;99.90
4699;DHT22;33708;49.466;11.176;2024-03-06T05:32:47;7.60;99.90
4699;DHT22;33708;49.466;11.176;2024-03-06T05:35:12;7.60;99.90
4699;DHT22;33708;49.466;11.176;2024-03-06T05:37:38;7.60;99.90
4699;DHT22;33708;49.466;11.176;2024-03-06T05:40:04;7.60;99.90
4699;DHT22;33708;49.466;11.176;2024-03-06T05:42:30;7.80;99.90
4699;DHT22;33708;49.466;11.176;2024-03-06T05:44:57;7.70;99.90
4699;DHT22;33708;49.466;11.176;2024-03-06T05:47:26;7.70;99.90
4699;DHT22;33708;49.466;11.176;2024-03-06T05:49:52;8.50;99.90
4699;DHT22;33708;49.466;11.176;2024-03-06T05:52:18;7.80;99.90
4699;DHT22;33708;49.466;11.176;2024-03-06T05:54:43;7.80;99.90
4699;DHT22;33708;49.466;11.176;2024-03-06T05:57:09;7.70;99.90
4699;DHT22;33708;49.466;11.176;2024-03-06T05:59:34;7.90;99.90
4699;DHT22;33708;49.466;11.176;2024-03-06T06:02:00;7.90;99.90
4699;DHT22;33708;49.466;11.176;2024-03-06T06:04:26;8.00;99.90
4699;DHT22;33708;49.466;11.176;2024-03-06T06:06:51;8.00;99.90
4699;DHT22;33708;49.466;11.176;2024-03-06T06:09:17;7.90;99.90
4699;DHT22;33708;49.466;11.176;2024-03-06T06:11:44;7.80;99.90
4699;DHT22;33708;49.466;11.176;2024-03-06T06:14:10;7.90;99.90
4699;DHT22;33708;49.466;11.176;2024-03-06T06:16:39;8.00;99.90
4699;DHT22;33708;49.466;11.176;2024-03-06T06:19:06;8.00;99.90
4699;DHT22;33708;49.466;11.176;2024-03-06T06:21:34;8.30;99.90
4699;DHT22;33708;49.466;11.176;2024-03-06T06:24:02;8.50;99.90
4699;DHT22;33708;49.466;11.176;2024-03-06T06:26:29;8.80;99.90
4699;DHT22;33708;49.466;11.176;2024-03-06T06:28:56;8.90;99.90
4699;DHT22;33708;49.466;11.176;2024-03-06T06:31:23;9.00;99.90
4699;DHT22;33708;49.466;11.176;2024-03-06T06:33:49;9.10;99.90
4699;DHT22;33708;49.466;11.176;2024-03-06T06:36:15;9.20;99.90
4699;DHT22;33708;49.466;11.176;2024-03-06T06:38:40;9.30;99.90
4699;DHT22;33708;49.466;11.176;2024-03-06T06:41:06;9.40;99.90
4699;DHT22;33708;49.466;11.176;2024-03-06T06:43:31;9.60;99.90
4699;DHT22;33708;49.466;11.176;2024-03-06T06:45:58;9.70;99.90
4699;DHT22;33708;49.466;11.176;2024-03-06T06:48:24;9.80;99.90
4699;DHT22;33708;49.466;11.176;2024-03-06T06:50:49;9.90;99.90
4699;DHT22;33708;49.466;11.176;2024-03-06T06:53:15;9.90;99.90
4699;DHT22;33708;49.466;11.176;2024-03-06T06:55:41;9.80;99.90
4699;DHT22;33708;49.466;11.176;2024-03-06T06:58:06;9.50;99.90
4699;DHT22;33708;49.466;11.176;2024-03-06T07:00:32;9.60;99.90
4699;DHT22;33708;49.466;11.176;2024-03-06T07:02:58;9.80;99.90
4699;DHT22;33708;49.466;11.176;2024-03-06T07:05:24;9.90;99.90
4699;DHT22;33708;49.466;11.176;2024-03-06T07:07:49;9.70;99.90
4699;DHT22;33708;49.466;11.176;2024-03-06T07:10:15;9.60;99.90
4699;DHT22;33708;49.466;11.176;2024-03-06T07:12:41;9.30;99.90
4699;DHT22;33708;49.466;11.176;2024-03-06T07:15:06;9.30;99.90
4699;DHT22;33708;49.466;11.176;2024-03-06T07:17:33;9.80;99.90
4699;DHT22;33708;49.466;11.176;2024-03-06T07:19:59;9.30;99.90
4699;DHT22;33708;49.466;11.176;2024-03-06T07:22:25;9.10;99.90
4699;DHT22;33708;49.466;11.176;2024-03-06T07:24:51;8.90;99.90
4699;DHT22;33708;49.466;11.176;2024-03-06T07:27:16;8.50;99.90
4699;DHT22;33708;49.466;11.176;2024-03-06T07:29:43;8.50;99.90
4699;DHT22;33708;49.466;11.176;2024-03-06T07:32:09;8.50;99.90
4699;DHT22;33708;49.466;11.176;2024-03-06T07:34:36;8.90;99.90
4699;DHT22;33708;49.466;11.176;2024-03-06T07:37:01;9.60;99.90
4699;DHT22;33708;49.466;11.176;2024-03-06T07:39:27;10.60;99.90
4699;DHT22;33708;49.466;11.176;2024-03-06T07:41:53;10.20;99.90
4699;DHT22;33708;49.466;11.176;2024-03-06T07:44:19;10.20;99.90
4699;DHT22;33708;49.466;11.176;2024-03-06T07:46:45;9.70;99.90
4699;DHT22;33708;49.466;11.176;2024-03-06T07:49:11;9.90;99.90
4699;DHT22;33708;49.466;11.176;2024-03-06T07:51:36;10.00;99.90
4699;DHT22;33708;49.466;11.176;2024-03-06T07:54:02;9.80;99.90
4699;DHT22;33708;49.466;11.176;2024-03-06T07:56:31;9.70;99.90
4699;DHT22;33708;49.466;11.176;2024-03-06T07:58:56;10.00;99.90
4699;DHT22;33708;49.466;11.176;2024-03-06T08:01:22;10.10;99.90
4699;DHT22;33708;49.466;11.176;2024-03-06T08:03:48;9.90;99.90
4699;DHT22;33708;49.466;11.176;2024-03-06T08:06:14;9.90;99.90
4699;DHT22;33708;49.466;11.176;2024-03-06T08:08:45;9.80;99.90
4699;DHT22;33708;49.466;11.176;2024-03-06T08:11:11;10.20;99.90
4699;DHT22;33708;49.466;11.176;2024-03-06T08:13:37;9.90;99.90
4699;DHT22;33708;49.466;11.176;2024-03-06T08:16:04;10.10;99.90
4699;DHT22;33708;49.466;11.176;2024-03-06T08:18:30;10.20;99.90
4699;DHT22;33708;49.466;11.176;2024-03-06T08:20:56;10.10;99.90
4699;DHT22;33708;49.466;11.176;2024-03-06T08:23:22;10.30;99.90
4699;DHT22;33708;49.466;11.176;2024-03-06T08:25:49;10.20;99.90
4699;DHT22;33708;49.466;11.176;2024-03-06T08:28:14;10.10;99.90
4699;DHT22;33708;49.466;11.176;2024-03-06T08:30:41;10.10;99.90
4699;DHT22;33708;49.466;11.176;2024-03-06T08:33:06;10.20;99.90
4699;DHT22;33708;49.466;11.176;2024-03-06T08:35:32;9.80;99.90
4699;DHT22;33708;49.466;11.176;2024-03-06T08:37:57;9.60;99.90
4699;DHT22;33708;49.466;11.176;2024-03-06T08:40:23;9.50;99.90
4699;DHT22;33708;49.466;11.176;2024-03-06T08:42:51;9.70;99.90
4699;DHT22;33708;49.466;11.176;2024-03-06T08:45:17;9.70;99.90
4699;DHT22;33708;49.466;11.176;2024-03-06T08:47:43;9.30;99.90
4699;DHT22;33708;49.466;11.176;2024-03-06T08:50:10;9.70;99.90
4699;DHT22;33708;49.466;11.176;2024-03-06T08:52:36;9.70;99.90
4699;DHT22;33708;49.466;11.176;2024-03-06T08:55:02;9.70;99.90
4699;DHT22;33708;49.466;11.176;2024-03-06T08:57:31;9.70;99.90
4699;DHT22;33708;49.466;11.176;2024-03-06T08:59:58;9.70;99.90
4699;DHT22;33708;49.466;11.176;2024-03-06T09:02:24;9.50;99.90
4699;DHT22;33708;49.466;11.176;2024-03-06T09:04:49;8.90;99.90
4699;DHT22;33708;49.466;11.176;2024-03-06T09:07:17;9.80;99.90
4699;DHT22;33708;49.466;11.176;2024-03-06T09:09:43;9.70;99.90
4699;DHT22;33708;49.466;11.176;2024-03-06T09:12:09;9.60;99.90
4699;DHT22;33708;49.466;11.176;2024-03-06T09:14:40;9.60;99.90
4699;DHT22;33708;49.466;11.176;2024-03-06T09:17:07;10.20;99.90
4699;DHT22;33708;49.466;11.176;2024-03-06T09:19:35;9.90;99.90
4699;DHT22;33708;49.466;11.176;2024-03-06T09:22:01;10.00;99.90
4699;DHT22;33708;49.466;11.176;2024-03-06T09:24:28;10.20;99.90
4699;DHT22;33708;49.466;11.176;2024-03-06T09:26:54;10.10;99.90
4699;DHT22;33708;49.466;11.176;2024-03-06T09:29:20;10.50;99.90
4699;DHT22;33708;49.466;11.176;2024-03-06T09:31:47;10.10;99.90
4699;DHT22;33708;49.466;11.176;2024-03-06T09:34:13;10.40;99.90
4699;DHT22;33708;49.466;11.176;2024-03-06T09:36:46;10.50;99.90
4699;DHT22;33708;49.466;11.176;2024-03-06T09:39:13;10.80;99.90
4699;DHT22;33708;49.466;11.176;2024-03-06T09:41:45;11.00;99.90
4699;DHT22;33708;49.466;11.176;2024-03-06T09:44:11;10.70;99.90
4699;DHT22;33708;49.466;11.176;2024-03-06T09:46:37;10.90;99.90
4699;DHT22;33708;49.466;11.176;2024-03-06T09:49:03;10.70;99.90
4699;DHT22;33708;49.466;11.176;2024-03-06T09:51:29;11.00;99.90
4699;DHT22;33708;49.466;11.176;2024-03-06T09:53:56;10.70;99.90
4699;DHT22;33708;49.466;11.176;2024-03-06T09:56:21;10.80;99.90
4699;DHT22;33708;49.466;11.176;2024-03-06T09:58:47;10.90;99.90
4699;DHT22;33708;49.466;11.176;2024-03-06T10:01:14;10.80;99.90
4699;DHT22;33708;49.466;11.176;2024-03-06T10:03:40;11.00;99.90
4699;DHT22;33708;49.466;11.176;2024-03-06T10:06:07;10.90;99.90
4699;DHT22;33708;49.466;11.176;2024-03-06T10:08:33;10.60;99.90
4699;DHT22;33708;49.466;11.176;2024-03-06T10:10:59;11.10;99.90
4699;DHT22;33708;49.466;11.176;2024-03-06T10:13:25;11.40;99.90
4699;DHT22;33708;49.466;11.176;2024-03-06T10:15:58;11.20;99.90
4699;DHT22;33708;49.466;11.176;2024-03-06T10:18:27;11.60;99.90
4699;DHT22;33708;49.466;11.176;2024-03-06T10:20:53;11.60;99.90
4699;DHT22;33708;49.466;11.176;2024-03-06T10:23:19;11.80;99.90
4699;DHT22;33708;49.466;11.176;2024-03-06T10:25:46;11.70;99.90
4699;DHT22;33708;49.466;11.176;2024-03-06T10:28:12;11.90;99.90
4699;DHT22;33708;49.466;11.176;2024-03-06T10:30:39;11.30;99.90
4699;DHT22;33708;49.466;11.176;2024-03-06T10:33:08;11.50;99.70
4699;DHT22;33708;49.466;11.176;2024-03-06T10:35:35;11.40;99.30
4699;DHT22;33708;49.466;11.176;2024-03-06T10:38:05;11.40;99.90
4699;DHT22;33708;49.466;11.176;2024-03-06T10:40:32;11.30;99.20
4699;DHT22;33708;49.466;11.176;2024-03-06T10:43:00;11.60;98.50
4699;DHT22;33708;49.466;11.176;2024-03-06T10:45:46;11.40;96.50
4699;DHT22;33708;49.466;11.176;2024-03-06T10:48:14;11.00;92.50
4699;DHT22;33708;49.466;11.176;2024-03-06T10:50:40;11.10;91.00
4699;DHT22;33708;49.466;11.176;2024-03-06T10:53:09;11.10;91.20
4699;DHT22;33708;49.466;11.176;2024-03-06T10:55:39;11.20;91.30
4699;DHT22;33708;49.466;11.176;2024-03-06T10:58:08;11.30;92.30
4699;DHT22;33708;49.466;11.176;2024-03-06T11:00:41;11.30;89.60
4699;DHT22;33708;49.466;11.176;2024-03-06T11:03:09;11.00;82.20
4699;DHT22;33708;49.466;11.176;2024-03-06T11:05:38;11.30;83.70
4699;DHT22;33708;49.466;11.176;2024-03-06T11:08:07;10.70;80.30
4699;DHT22;33708;49.466;11.176;2024-03-06T11:10:34;10.70;76.30
4699;DHT22;33708;49.466;11.176;2024-03-06T11:13:01;10.60;76.50
4699;DHT22;33708;49.466;11.176;2024-03-06T11:15:28;10.50;74.40
4699;DHT22;33708;49.466;11.176;2024-03-06T11:17:54;10.40;73.50
4699;DHT22;33708;49.466;11.176;2024-03-06T11:20:21;10.40;75.00
4699;DHT22;33708;49.466;11.176;2024-03-06T11:30:55;10.30;71.80
4699;DHT22;33708;49.466;11.176;2024-03-06T11:33:23;10.60;73.40
4699;DHT22;33708;49.466;11.176;2024-03-06T11:44:21;10.70;75.80
4699;DHT22;33708;49.466;11.176;2024-03-06T11:49:21;10.80;75.00
4699;DHT22;33708;49.466;11.176;2024-03-06T11:51:50;10.60;74.90
4699;DHT22;33708;49.466;11.176;2024-03-06T11:54:16;11.00;76.50
4699;DHT22;33708;49.466;11.176;2024-03-06T11:56:45;10.60;73.10
4699;DHT22;33708;49.466;11.176;2024-03-06T11:59:12;10.60;73.00
4699;DHT22;33708;49.466;11.176;2024-03-06T12:01:38;10.70;69.90
4699;DHT22;33708;49.466;11.176;2024-03-06T12:04:04;11.00;71.90
4699;DHT22;33708;49.466;11.176;2024-03-06T12:06:32;11.30;71.30
4699;DHT22;33708;49.466;11.176;2024-03-06T12:08:58;11.40;73.50
4699;DHT22;33708;49.466;11.176;2024-03-06T12:11:24;11.40;70.00
4699;DHT22;33708;49.466;11.176;2024-03-06T12:13:54;11.20;59.00
4699;DHT22;33708;49.466;11.176;2024-03-06T12:16:21;11.40;57.30
4699;DHT22;33708;49.466;11.176;2024-03-06T12:18:53;11.60;58.00
4699;DHT22;33708;49.466;11.176;2024-03-06T12:21:19;11.50;55.40
4699;DHT22;33708;49.466;11.176;2024-03-06T12:23:45;11.30;51.70
4699;DHT22;33708;49.466;11.176;2024-03-06T12:26:10;11.50;51.90
4699;DHT22;33708;49.466;11.176;2024-03-06T12:28:39;11.60;51.10
4699;DHT22;33708;49.466;11.176;2024-03-06T12:31:05;11.50;49.80
4699;DHT22;33708;49.466;11.176;2024-03-06T12:33:33;11.80;49.80
4699;DHT22;33708;49.466;11.176;2024-03-06T12:36:06;12.00;51.10
4699;DHT22;33708;49.466;11.176;2024-03-06T12:38:33;11.60;47.30
4699;DHT22;33708;49.466;11.176;2024-03-06T12:40:59;11.80;47.90
4699;DHT22;33708;49.466;11.176;2024-03-06T12:43:25;12.20;52.60
4699;DHT22;33708;49.466;11.176;2024-03-06T12:45:51;12.40;52.30
4699;DHT22;33708;49.466;11.176;2024-03-06T12:48:20;12.50;52.60
4699;DHT22;33708;49.466;11.176;2024-03-06T12:50:46;12.10;49.40
4699;DHT22;33708;49.466;11.176;2024-03-06T12:53:20;12.50;49.70
4699;DHT22;33708;49.466;11.176;2024-03-06T12:55:46;12.20;46.50
4699;DHT22;33708;49.466;11.176;2024-03-06T12:58:12;12.50;48.90
4699;DHT22;33708;49.466;11.176;2024-03-06T13:00:38;12.70;48.80
4699;DHT22;33708;49.466;11.176;2024-03-06T13:03:04;12.70;50.30
4699;DHT22;33708;49.466;11.176;2024-03-06T13:05:30;12.70;50.70
4699;DHT22;33708;49.466;11.176;2024-03-06T13:07:56;12.90;50.80
4699;DHT22;33708;49.466;11.176;2024-03-06T13:10:22;12.80;48.80
4699;DHT22;33708;49.466;11.176;2024-03-06T13:12:48;13.10;49.10
4699;DHT22;33708;49.466;11.176;2024-03-06T13:15:13;13.20;47.40
4699;DHT22;33708;49.466;11.176;2024-03-06T13:17:39;12.90;44.30
4699;DHT22;33708;49.466;11.176;2024-03-06T13:20:07;13.10;42.30
4699;DHT22;33708;49.466;11.176;2024-03-06T13:22:39;13.00;42.40
4699;DHT22;33708;49.466;11.176;2024-03-06T13:25:06;12.60;36.80
4699;DHT22;33708;49.466;11.176;2024-03-06T13:27:32;12.50;37.00
4699;DHT22;33708;49.466;11.176;2024-03-06T13:29:58;12.40;36.30
4699;DHT22;33708;49.466;11.176;2024-03-06T13:32:24;12.60;35.90
4699;DHT22;33708;49.466;11.176;2024-03-06T13:34:49;12.80;38.20
4699;DHT22;33708;49.466;11.176;2024-03-06T13:37:15;12.80;37.50
4699;DHT22;33708;49.466;11.176;2024-03-06T13:39:41;12.30;34.00
4699;DHT22;33708;49.466;11.176;2024-03-06T13:42:07;12.60;37.40
4699;DHT22;33708;49.466;11.176;2024-03-06T13:44:36;12.10;33.20
4699;DHT22;33708;49.466;11.176;2024-03-06T13:47:02;12.20;46.90
4699;DHT22;33708;49.466;11.176;2024-03-06T13:49:36;12.20;37.10
4699;DHT22;33708;49.466;11.176;2024-03-06T13:52:02;12.70;39.00
4699;DHT22;33708;49.466;11.176;2024-03-06T13:54:28;12.60;37.70
4699;DHT22;33708;49.466;11.176;2024-03-06T13:56:53;12.70;37.10
4699;DHT22;33708;49.466;11.176;2024-03-06T13:59:27;12.70;39.20
4699;DHT22;33708;49.466;11.176;2024-03-06T14:01:53;12.70;39.40
4699;DHT22;33708;49.466;11.176;2024-03-06T14:04:18;12.60;38.50
4699;DHT22;33708;49.466;11.176;2024-03-06T14:06:44;12.50;35.30
4699;DHT22;33708;49.466;11.176;2024-03-06T14:09:10;12.30;31.60
4699;DHT22;33708;49.466;11.176;2024-03-06T14:11:35;12.50;34.60
4699;DHT22;33708;49.466;11.176;2024-03-06T14:14:01;12.50;34.20
4699;DHT22;33708;49.466;11.176;2024-03-06T14:16:26;12.20;31.40
4699;DHT22;33708;49.466;11.176;2024-03-06T14:18:52;12.20;32.90
4699;DHT22;33708;49.466;11.176;2024-03-06T14:21:19;11.90;31.20
4699;DHT22;33708;49.466;11.176;2024-03-06T14:23:44;12.10;31.00
4699;DHT22;33708;49.466;11.176;2024-03-06T14:26:10;12.10;33.30
4699;DHT22;33708;49.466;11.176;2024-03-06T14:28:36;12.20;33.70
4699;DHT22;33708;49.466;11.176;2024-03-06T14:31:03;12.20;34.50
4699;DHT22;33708;49.466;11.176;2024-03-06T14:33:29;12.10;35.10
4699;DHT22;33708;49.466;11.176;2024-03-06T14:35:55;11.90;31.20
4699;DHT22;33708;49.466;11.176;2024-03-06T14:38:20;11.90;31.00
4699;DHT22;33708;49.466;11.176;2024-03-06T14:40:46;11.60;29.80
4699;DHT22;33708;49.466;11.176;2024-03-06T14:43:11;11.60;29.20
4699;DHT22;33708;49.466;11.176;2024-03-06T14:45:38;11.90;31.90
4699;DHT22;33708;49.466;11.176;2024-03-06T14:48:07;12.00;32.20
4699;DHT22;33708;49.466;11.176;2024-03-06T14:50:33;12.00;30.80
4699;DHT22;33708;49.466;11.176;2024-03-06T14:52:59;12.00;32.80
4699;DHT22;33708;49.466;11.176;2024-03-06T14:55:24;12.00;45.60
4699;DHT22;33708;49.466;11.176;2024-03-06T14:57:50;11.80;31.50
4699;DHT22;33708;49.466;11.176;2024-03-06T15:00:16;12.10;35.10
4699;DHT22;33708;49.466;11.176;2024-03-06T15:02:46;12.00;32.90
4699;DHT22;33708;49.466;11.176;2024-03-06T15:05:12;12.00;29.40
4699;DHT22;33708;49.466;11.176;2024-03-06T15:07:38;11.70;25.60
4699;DHT22;33708;49.466;11.176;2024-03-06T15:10:07;11.60;25.30
4699;DHT22;33708;49.466;11.176;2024-03-06T15:12:37;11.70;25.30
4699;DHT22;33708;49.466;11.176;2024-03-06T15:15:04;11.70;25.00
4699;DHT22;33708;49.466;11.176;2024-03-06T15:17:32;11.70;25.20
4699;DHT22;33708;49.466;11.176;2024-03-06T15:20:00;11.80;26.00
4699;DHT22;33708;49.466;11.176;2024-03-06T15:22:26;12.10;27.60
4699;DHT22;33708;49.466;11.176;2024-03-06T15:24:51;11.80;26.70
4699;DHT22;33708;49.466;11.176;2024-03-06T15:27:17;11.80;24.20
4699;DHT22;33708;49.466;11.176;2024-03-06T15:29:43;11.70;21.50
4699;DHT22;33708;49.466;11.176;2024-03-06T15:32:11;11.70;22.10
4699;DHT22;33708;49.466;11.176;2024-03-06T15:34:37;11.70;22.90
4699;DHT22;33708;49.466;11.176;2024-03-06T15:37:03;11.70;22.90
4699;DHT22;33708;49.466;11.176;2024-03-06T15:39:29;11.80;23.60
4699;DHT22;33708;49.466;11.176;2024-03-06T15:41:54;11.80;24.10
4699;DHT22;33708;49.466;11.176;2024-03-06T15:44:22;11.70;22.70
4699;DHT22;33708;49.466;11.176;2024-03-06T15:46:48;11.80;24.50
4699;DHT22;33708;49.466;11.176;2024-03-06T15:49:22;11.50;21.30
4699;DHT22;33708;49.466;11.176;2024-03-06T15:51:57;11.70;24.60
4699;DHT22;33708;49.466;11.176;2024-03-06T15:54:23;11.60;22.40
4699;DHT22;33708;49.466;11.176;2024-03-06T15:56:48;11.60;24.00
4699;DHT22;33708;49.466;11.176;2024-03-06T15:59:14;11.40;22.40